sensor_id;sensor_type;location;lat;lon;timestamp;P1;durP1;ratioP1;P2;durP2;ratioP2
4102;SDS011;2065;49.790;9.620;2022-12-08T00:01:25;16.63;;;8.97;;
4102;SDS011;2065;49.790;9.620;2022-12-08T00:03:54;11.87;;;7.50;;
4102;SDS011;2065;49.790;9.620;2022-12-08T00:06:24;17.30;;;8.13;;
4102;SDS011;2065;49.790;9.620;2022-12-08T00:09:16;14.60;;;8.40;;
4102;SDS011;2065;49.790;9.620;2022-12-08T00:11:48;13.70;;;8.30;;
4102;SDS011;2065;49.790;9.620;2022-12-08T00:14:16;16.73;;;8.97;;
4102;SDS011;2065;49.790;9.620;2022-12-08T00:16:43;16.80;;;9.63;;
4102;SDS011;2065;49.790;9.620;2022-12-08T00:19:10;17.50;;;9.23;;
4102;SDS011;2065;49.790;9.620;2022-12-08T00:21:37;17.73;;;8.93;;
4102;SDS011;2065;49.790;9.620;2022-12-08T00:24:04;18.40;;;10.13;;
4102;SDS011;2065;49.790;9.620;2022-12-08T00:26:33;14.63;;;8.70;;
4102;SDS011;2065;49.790;9.620;2022-12-08T00:29:00;15.53;;;10.00;;
4102;SDS011;2065;49.790;9.620;2022-12-08T00:31:27;18.57;;;10.87;;
4102;SDS011;2065;49.790;9.620;2022-12-08T00:33:54;15.47;;;9.00;;
4102;SDS011;2065;49.790;9.620;2022-12-08T00:36:21;14.73;;;8.23;;
4102;SDS011;2065;49.790;9.620;2022-12-08T00:38:48;17.13;;;8.63;;
4102;SDS011;2065;49.790;9.620;2022-12-08T00:41:15;14.10;;;7.73;;
4102;SDS011;2065;49.790;9.620;2022-12-08T00:43:45;17.87;;;8.57;;
4102;SDS011;2065;49.790;9.620;2022-12-08T00:46:12;12.07;;;7.70;;
4102;SDS011;2065;49.790;9.620;2022-12-08T00:48:39;15.70;;;8.13;;
4102;SDS011;2065;49.790;9.620;2022-12-08T00:51:06;20.40;;;9.07;;
4102;SDS011;2065;49.790;9.620;2022-12-08T00:53:33;17.40;;;8.40;;
4102;SDS011;2065;49.790;9.620;2022-12-08T00:56:00;14.90;;;8.57;;
4102;SDS011;2065;49.790;9.620;2022-12-08T00:58:27;14.90;;;7.80;;
4102;SDS011;2065;49.790;9.620;2022-12-08T01:00:55;15.67;;;9.20;;
4102;SDS011;2065;49.790;9.620;2022-12-08T01:03:22;15.37;;;8.93;;
4102;SDS011;2065;49.790;9.620;2022-12-08T01:05:49;19.10;;;10.33;;
4102;SDS011;2065;49.790;9.620;2022-12-08T01:08:17;16.63;;;8.70;;
4102;SDS011;2065;49.790;9.620;2022-12-08T01:10:43;15.43;;;8.67;;
4102;SDS011;2065;49.790;9.620;2022-12-08T01:13:10;16.60;;;9.83;;
4102;SDS011;2065;49.790;9.620;2022-12-08T01:15:37;18.87;;;9.17;;
4102;SDS011;2065;49.790;9.620;2022-12-08T01:18:06;21.77;;;9.90;;
4102;SDS011;2065;49.790;9.620;2022-12-08T01:20:33;16.40;;;9.23;;
4102;SDS011;2065;49.790;9.620;2022-12-08T01:23:00;14.70;;;8.30;;
4102;SDS011;2065;49.790;9.620;2022-12-08T01:25:27;17.07;;;9.23;;
4102;SDS011;2065;49.790;9.620;2022-12-08T01:27:54;16.57;;;10.10;;
4102;SDS011;2065;49.790;9.620;2022-12-08T01:30:21;14.83;;;9.63;;
4102;SDS011;2065;49.790;9.620;2022-12-08T01:32:47;16.47;;;8.77;;
4102;SDS011;2065;49.790;9.620;2022-12-08T01:35:16;18.17;;;9.80;;
4102;SDS011;2065;49.790;9.620;2022-12-08T01:37:43;18.00;;;10.03;;
4102;SDS011;2065;49.790;9.620;2022-12-08T01:40:11;18.87;;;9.47;;
4102;SDS011;2065;49.790;9.620;2022-12-08T01:42:38;18.67;;;10.70;;
4102;SDS011;2065;49.790;9.620;2022-12-08T01:45:05;21.10;;;10.33;;
4102;SDS011;2065;49.790;9.620;2022-12-08T01:47:39;18.37;;;10.50;;
4102;SDS011;2065;49.790;9.620;2022-12-08T01:50:10;17.77;;;9.53;;
4102;SDS011;2065;49.790;9.620;2022-12-08T01:52:43;15.63;;;9.43;;
4102;SDS011;2065;49.790;9.620;2022-12-08T01:55:14;18.07;;;10.60;;
4102;SDS011;2065;49.790;9.620;2022-12-08T01:57:44;15.00;;;10.43;;
4102;SDS011;2065;49.790;9.620;2022-12-08T02:00:15;19.33;;;10.10;;
4102;SDS011;2065;49.790;9.620;2022-12-08T02:02:46;22.63;;;11.77;;
4102;SDS011;2065;49.790;9.620;2022-12-08T02:05:18;18.87;;;10.53;;
4102;SDS011;2065;49.790;9.620;2022-12-08T02:07:49;20.87;;;11.80;;
4102;SDS011;2065;49.790;9.620;2022-12-08T02:10:18;20.73;;;10.93;;
4102;SDS011;2065;49.790;9.620;2022-12-08T02:12:46;18.60;;;9.73;;
4102;SDS011;2065;49.790;9.620;2022-12-08T02:15:15;26.27;;;11.60;;
4102;SDS011;2065;49.790;9.620;2022-12-08T02:17:47;25.70;;;11.80;;
4102;SDS011;2065;49.790;9.620;2022-12-08T02:20:37;18.37;;;10.80;;
4102;SDS011;2065;49.790;9.620;2022-12-08T02:23:17;22.60;;;11.20;;
4102;SDS011;2065;49.790;9.620;2022-12-08T02:26:04;29.00;;;13.90;;
4102;SDS011;2065;49.790;9.620;2022-12-08T02:29:00;20.07;;;10.83;;
4102;SDS011;2065;49.790;9.620;2022-12-08T02:31:41;19.20;;;10.53;;
4102;SDS011;2065;49.790;9.620;2022-12-08T02:34:22;21.27;;;10.37;;
4102;SDS011;2065;49.790;9.620;2022-12-08T02:36:56;19.17;;;9.70;;
4102;SDS011;2065;49.790;9.620;2022-12-08T02:39:34;19.07;;;10.57;;
4102;SDS011;2065;49.790;9.620;2022-12-08T02:42:08;26.23;;;11.43;;
4102;SDS011;2065;49.790;9.620;2022-12-08T02:44:46;17.83;;;10.50;;
4102;SDS011;2065;49.790;9.620;2022-12-08T02:47:18;24.53;;;10.83;;
4102;SDS011;2065;49.790;9.620;2022-12-08T02:49:48;24.73;;;12.10;;
4102;SDS011;2065;49.790;9.620;2022-12-08T02:55:07;24.03;;;11.30;;
4102;SDS011;2065;49.790;9.620;2022-12-08T02:57:42;22.03;;;11.50;;
4102;SDS011;2065;49.790;9.620;2022-12-08T03:00:22;16.33;;;10.53;;
4102;SDS011;2065;49.790;9.620;2022-12-08T03:03:03;21.80;;;10.80;;
4102;SDS011;2065;49.790;9.620;2022-12-08T03:05:44;23.63;;;11.17;;
4102;SDS011;2065;49.790;9.620;2022-12-08T03:08:21;27.10;;;12.77;;
4102;SDS011;2065;49.790;9.620;2022-12-08T03:10:55;23.33;;;11.30;;
4102;SDS011;2065;49.790;9.620;2022-12-08T03:13:28;20.70;;;11.40;;
4102;SDS011;2065;49.790;9.620;2022-12-08T03:16:00;24.40;;;11.10;;
4102;SDS011;2065;49.790;9.620;2022-12-08T03:18:31;18.83;;;10.70;;
4102;SDS011;2065;49.790;9.620;2022-12-08T03:21:03;23.33;;;11.80;;
4102;SDS011;2065;49.790;9.620;2022-12-08T03:23:32;21.20;;;10.90;;
4102;SDS011;2065;49.790;9.620;2022-12-08T03:26:03;23.20;;;10.43;;
4102;SDS011;2065;49.790;9.620;2022-12-08T03:28:34;23.33;;;11.63;;
4102;SDS011;2065;49.790;9.620;2022-12-08T03:31:01;20.87;;;11.37;;
4102;SDS011;2065;49.790;9.620;2022-12-08T03:33:33;20.03;;;11.07;;
4102;SDS011;2065;49.790;9.620;2022-12-08T03:36:06;26.20;;;12.17;;
4102;SDS011;2065;49.790;9.620;2022-12-08T03:38:38;27.30;;;12.07;;
4102;SDS011;2065;49.790;9.620;2022-12-08T03:41:07;24.50;;;11.20;;
4102;SDS011;2065;49.790;9.620;2022-12-08T03:43:44;22.60;;;9.97;;
4102;SDS011;2065;49.790;9.620;2022-12-08T03:46:11;22.57;;;10.77;;
4102;SDS011;2065;49.790;9.620;2022-12-08T03:48:38;23.03;;;10.60;;
4102;SDS011;2065;49.790;9.620;2022-12-08T03:51:06;25.40;;;11.67;;
4102;SDS011;2065;49.790;9.620;2022-12-08T03:53:34;23.30;;;11.30;;
4102;SDS011;2065;49.790;9.620;2022-12-08T03:56:02;24.40;;;11.20;;
4102;SDS011;2065;49.790;9.620;2022-12-08T03:58:30;27.80;;;12.80;;
4102;SDS011;2065;49.790;9.620;2022-12-08T04:00:57;19.57;;;11.20;;
4102;SDS011;2065;49.790;9.620;2022-12-08T04:03:24;26.43;;;11.80;;
4102;SDS011;2065;49.790;9.620;2022-12-08T04:05:51;24.93;;;11.70;;
4102;SDS011;2065;49.790;9.620;2022-12-08T04:08:19;23.13;;;12.03;;
4102;SDS011;2065;49.790;9.620;2022-12-08T04:10:46;36.50;;;14.97;;
4102;SDS011;2065;49.790;9.620;2022-12-08T04:13:13;28.53;;;14.47;;
4102;SDS011;2065;49.790;9.620;2022-12-08T04:15:43;29.53;;;12.90;;
4102;SDS011;2065;49.790;9.620;2022-12-08T04:18:11;23.53;;;10.33;;
4102;SDS011;2065;49.790;9.620;2022-12-08T04:20:38;24.83;;;10.77;;
4102;SDS011;2065;49.790;9.620;2022-12-08T04:23:05;28.20;;;13.63;;
4102;SDS011;2065;49.790;9.620;2022-12-08T04:25:34;30.33;;;13.13;;
4102;SDS011;2065;49.790;9.620;2022-12-08T04:28:02;22.87;;;11.90;;
4102;SDS011;2065;49.790;9.620;2022-12-08T04:30:29;24.17;;;13.27;;
4102;SDS011;2065;49.790;9.620;2022-12-08T04:32:56;22.77;;;12.17;;
4102;SDS011;2065;49.790;9.620;2022-12-08T04:35:23;20.83;;;10.30;;
4102;SDS011;2065;49.790;9.620;2022-12-08T04:37:50;19.70;;;11.20;;
4102;SDS011;2065;49.790;9.620;2022-12-08T04:40:17;25.23;;;11.57;;
4102;SDS011;2065;49.790;9.620;2022-12-08T04:42:46;19.93;;;12.00;;
4102;SDS011;2065;49.790;9.620;2022-12-08T04:45:13;22.60;;;11.03;;
4102;SDS011;2065;49.790;9.620;2022-12-08T04:47:40;19.80;;;10.90;;
4102;SDS011;2065;49.790;9.620;2022-12-08T04:50:08;23.10;;;11.27;;
4102;SDS011;2065;49.790;9.620;2022-12-08T04:52:35;22.33;;;11.30;;
4102;SDS011;2065;49.790;9.620;2022-12-08T04:55:03;26.10;;;13.00;;
4102;SDS011;2065;49.790;9.620;2022-12-08T04:57:30;24.00;;;11.23;;
4102;SDS011;2065;49.790;9.620;2022-12-08T04:59:58;21.03;;;10.50;;
4102;SDS011;2065;49.790;9.620;2022-12-08T05:02:26;25.47;;;10.13;;
4102;SDS011;2065;49.790;9.620;2022-12-08T05:04:53;16.00;;;9.70;;
4102;SDS011;2065;49.790;9.620;2022-12-08T05:07:20;20.07;;;10.30;;
4102;SDS011;2065;49.790;9.620;2022-12-08T05:09:47;22.87;;;9.80;;
4102;SDS011;2065;49.790;9.620;2022-12-08T05:12:14;24.90;;;12.00;;
4102;SDS011;2065;49.790;9.620;2022-12-08T05:14:42;20.70;;;10.43;;
4102;SDS011;2065;49.790;9.620;2022-12-08T05:17:10;19.10;;;9.90;;
4102;SDS011;2065;49.790;9.620;2022-12-08T05:19:37;22.77;;;12.33;;
4102;SDS011;2065;49.790;9.620;2022-12-08T05:22:04;25.90;;;10.67;;
4102;SDS011;2065;49.790;9.620;2022-12-08T05:24:31;16.13;;;9.73;;
4102;SDS011;2065;49.790;9.620;2022-12-08T05:26:58;15.60;;;9.80;;
4102;SDS011;2065;49.790;9.620;2022-12-08T05:29:25;16.67;;;8.60;;
4102;SDS011;2065;49.790;9.620;2022-12-08T05:31:52;17.03;;;8.80;;
4102;SDS011;2065;49.790;9.620;2022-12-08T05:34:20;19.23;;;10.00;;
4102;SDS011;2065;49.790;9.620;2022-12-08T05:36:47;17.07;;;9.47;;
4102;SDS011;2065;49.790;9.620;2022-12-08T05:39:14;24.33;;;9.23;;
4102;SDS011;2065;49.790;9.620;2022-12-08T05:41:41;19.80;;;9.87;;
4102;SDS011;2065;49.790;9.620;2022-12-08T05:44:08;21.07;;;9.97;;
4102;SDS011;2065;49.790;9.620;2022-12-08T05:46:35;19.07;;;10.27;;
4102;SDS011;2065;49.790;9.620;2022-12-08T05:49:02;19.30;;;10.40;;
4102;SDS011;2065;49.790;9.620;2022-12-08T05:51:31;14.53;;;9.90;;
4102;SDS011;2065;49.790;9.620;2022-12-08T05:53:58;16.13;;;8.20;;
4102;SDS011;2065;49.790;9.620;2022-12-08T05:56:25;18.93;;;10.97;;
4102;SDS011;2065;49.790;9.620;2022-12-08T05:58:52;21.90;;;10.97;;
4102;SDS011;2065;49.790;9.620;2022-12-08T06:01:20;23.70;;;11.57;;
4102;SDS011;2065;49.790;9.620;2022-12-08T06:03:48;20.70;;;11.63;;
4102;SDS011;2065;49.790;9.620;2022-12-08T06:06:15;18.70;;;9.80;;
4102;SDS011;2065;49.790;9.620;2022-12-08T06:08:43;20.07;;;10.60;;
4102;SDS011;2065;49.790;9.620;2022-12-08T06:11:16;18.83;;;9.60;;
4102;SDS011;2065;49.790;9.620;2022-12-08T06:13:44;18.27;;;9.40;;
4102;SDS011;2065;49.790;9.620;2022-12-08T06:16:11;16.90;;;8.50;;
4102;SDS011;2065;49.790;9.620;2022-12-08T06:18:38;22.87;;;9.37;;
4102;SDS011;2065;49.790;9.620;2022-12-08T06:21:05;15.70;;;8.33;;
4102;SDS011;2065;49.790;9.620;2022-12-08T06:23:34;17.67;;;9.10;;
4102;SDS011;2065;49.790;9.620;2022-12-08T06:26:03;16.73;;;7.80;;
4102;SDS011;2065;49.790;9.620;2022-12-08T06:28:31;16.77;;;7.57;;
4102;SDS011;2065;49.790;9.620;2022-12-08T06:30:59;14.07;;;8.17;;
4102;SDS011;2065;49.790;9.620;2022-12-08T06:33:33;14.60;;;7.27;;
4102;SDS011;2065;49.790;9.620;2022-12-08T06:36:00;9.57;;;6.43;;
4102;SDS011;2065;49.790;9.620;2022-12-08T06:38:27;15.20;;;7.87;;
4102;SDS011;2065;49.790;9.620;2022-12-08T06:40:54;13.00;;;7.27;;
4102;SDS011;2065;49.790;9.620;2022-12-08T06:43:23;11.07;;;7.50;;
4102;SDS011;2065;49.790;9.620;2022-12-08T06:45:50;13.10;;;7.87;;
4102;SDS011;2065;49.790;9.620;2022-12-08T06:48:18;14.90;;;7.57;;
4102;SDS011;2065;49.790;9.620;2022-12-08T06:50:45;11.40;;;6.40;;
4102;SDS011;2065;49.790;9.620;2022-12-08T06:53:13;12.40;;;7.87;;
4102;SDS011;2065;49.790;9.620;2022-12-08T06:55:41;14.33;;;7.90;;
4102;SDS011;2065;49.790;9.620;2022-12-08T06:58:09;14.07;;;7.50;;
4102;SDS011;2065;49.790;9.620;2022-12-08T07:00:38;12.77;;;7.13;;
4102;SDS011;2065;49.790;9.620;2022-12-08T07:03:05;16.17;;;7.70;;
4102;SDS011;2065;49.790;9.620;2022-12-08T07:05:33;12.40;;;7.97;;
4102;SDS011;2065;49.790;9.620;2022-12-08T07:08:00;16.13;;;8.27;;
4102;SDS011;2065;49.790;9.620;2022-12-08T07:10:27;11.50;;;6.33;;
4102;SDS011;2065;49.790;9.620;2022-12-08T07:12:54;13.20;;;7.70;;
4102;SDS011;2065;49.790;9.620;2022-12-08T07:15:21;11.63;;;7.60;;
4102;SDS011;2065;49.790;9.620;2022-12-08T07:17:50;15.67;;;8.20;;
4102;SDS011;2065;49.790;9.620;2022-12-08T07:20:17;12.57;;;8.20;;
4102;SDS011;2065;49.790;9.620;2022-12-08T07:22:46;15.83;;;8.40;;
4102;SDS011;2065;49.790;9.620;2022-12-08T07:25:15;15.30;;;7.60;;
4102;SDS011;2065;49.790;9.620;2022-12-08T07:27:42;14.40;;;8.07;;
4102;SDS011;2065;49.790;9.620;2022-12-08T07:30:10;13.90;;;8.33;;
4102;SDS011;2065;49.790;9.620;2022-12-08T07:32:39;11.73;;;8.00;;
4102;SDS011;2065;49.790;9.620;2022-12-08T07:35:08;13.57;;;7.10;;
4102;SDS011;2065;49.790;9.620;2022-12-08T07:37:35;14.17;;;7.47;;
4102;SDS011;2065;49.790;9.620;2022-12-08T07:40:03;12.73;;;7.90;;
4102;SDS011;2065;49.790;9.620;2022-12-08T07:42:31;16.37;;;7.87;;
4102;SDS011;2065;49.790;9.620;2022-12-08T07:44:58;16.13;;;8.30;;
4102;SDS011;2065;49.790;9.620;2022-12-08T07:47:25;9.60;;;6.00;;
4102;SDS011;2065;49.790;9.620;2022-12-08T07:49:52;14.73;;;7.17;;
4102;SDS011;2065;49.790;9.620;2022-12-08T07:52:20;13.87;;;7.60;;
4102;SDS011;2065;49.790;9.620;2022-12-08T07:54:47;13.33;;;7.63;;
4102;SDS011;2065;49.790;9.620;2022-12-08T07:57:14;13.70;;;7.30;;
4102;SDS011;2065;49.790;9.620;2022-12-08T07:59:41;12.30;;;7.30;;
4102;SDS011;2065;49.790;9.620;2022-12-08T08:02:11;11.20;;;6.73;;
4102;SDS011;2065;49.790;9.620;2022-12-08T08:04:42;17.87;;;9.03;;
4102;SDS011;2065;49.790;9.620;2022-12-08T08:07:09;15.43;;;8.73;;
4102;SDS011;2065;49.790;9.620;2022-12-08T08:09:38;17.97;;;10.10;;
4102;SDS011;2065;49.790;9.620;2022-12-08T08:12:05;20.20;;;10.03;;
4102;SDS011;2065;49.790;9.620;2022-12-08T08:14:32;16.90;;;8.20;;
4102;SDS011;2065;49.790;9.620;2022-12-08T08:16:59;11.60;;;7.93;;
4102;SDS011;2065;49.790;9.620;2022-12-08T08:19:26;16.23;;;8.10;;
4102;SDS011;2065;49.790;9.620;2022-12-08T08:21:53;17.40;;;8.37;;
4102;SDS011;2065;49.790;9.620;2022-12-08T08:24:20;18.83;;;9.33;;
4102;SDS011;2065;49.790;9.620;2022-12-08T08:26:49;15.87;;;9.70;;
4102;SDS011;2065;49.790;9.620;2022-12-08T08:29:17;14.20;;;7.33;;
4102;SDS011;2065;49.790;9.620;2022-12-08T08:31:44;16.50;;;8.80;;
4102;SDS011;2065;49.790;9.620;2022-12-08T08:34:11;13.20;;;7.93;;
4102;SDS011;2065;49.790;9.620;2022-12-08T08:36:39;13.93;;;8.30;;
4102;SDS011;2065;49.790;9.620;2022-12-08T08:39:06;13.40;;;7.77;;
4102;SDS011;2065;49.790;9.620;2022-12-08T08:41:33;17.20;;;9.20;;
4102;SDS011;2065;49.790;9.620;2022-12-08T08:44:02;14.90;;;8.57;;
4102;SDS011;2065;49.790;9.620;2022-12-08T08:46:29;16.83;;;9.07;;
4102;SDS011;2065;49.790;9.620;2022-12-08T08:48:57;12.97;;;7.70;;
4102;SDS011;2065;49.790;9.620;2022-12-08T08:51:24;20.03;;;9.40;;
4102;SDS011;2065;49.790;9.620;2022-12-08T08:53:51;14.10;;;8.67;;
4102;SDS011;2065;49.790;9.620;2022-12-08T08:56:18;16.40;;;7.80;;
4102;SDS011;2065;49.790;9.620;2022-12-08T08:58:45;15.70;;;8.73;;
4102;SDS011;2065;49.790;9.620;2022-12-08T09:01:15;14.47;;;9.03;;
4102;SDS011;2065;49.790;9.620;2022-12-08T09:03:44;17.37;;;9.80;;
4102;SDS011;2065;49.790;9.620;2022-12-08T09:06:11;14.67;;;8.30;;
4102;SDS011;2065;49.790;9.620;2022-12-08T09:08:38;15.43;;;8.73;;
4102;SDS011;2065;49.790;9.620;2022-12-08T09:11:06;13.30;;;7.67;;
4102;SDS011;2065;49.790;9.620;2022-12-08T09:13:33;14.77;;;7.53;;
4102;SDS011;2065;49.790;9.620;2022-12-08T09:16:01;19.33;;;10.27;;
4102;SDS011;2065;49.790;9.620;2022-12-08T09:18:30;14.63;;;8.47;;
4102;SDS011;2065;49.790;9.620;2022-12-08T09:21:02;14.50;;;9.00;;
4102;SDS011;2065;49.790;9.620;2022-12-08T09:23:29;12.53;;;7.93;;
4102;SDS011;2065;49.790;9.620;2022-12-08T09:25:57;19.90;;;9.13;;
4102;SDS011;2065;49.790;9.620;2022-12-08T09:28:24;11.97;;;7.10;;
4102;SDS011;2065;49.790;9.620;2022-12-08T09:30:51;11.60;;;6.87;;
4102;SDS011;2065;49.790;9.620;2022-12-08T09:33:18;13.93;;;7.40;;
4102;SDS011;2065;49.790;9.620;2022-12-08T09:35:47;12.90;;;7.37;;
4102;SDS011;2065;49.790;9.620;2022-12-08T09:38:14;13.93;;;7.30;;
4102;SDS011;2065;49.790;9.620;2022-12-08T09:40:42;15.30;;;7.30;;
4102;SDS011;2065;49.790;9.620;2022-12-08T09:43:17;11.20;;;7.20;;
4102;SDS011;2065;49.790;9.620;2022-12-08T09:45:56;9.80;;;6.80;;
4102;SDS011;2065;49.790;9.620;2022-12-08T09:48:27;13.13;;;6.77;;
4102;SDS011;2065;49.790;9.620;2022-12-08T09:51:00;10.83;;;6.73;;
4102;SDS011;2065;49.790;9.620;2022-12-08T09:53:31;13.07;;;7.37;;
4102;SDS011;2065;49.790;9.620;2022-12-08T09:56:02;12.07;;;7.20;;
4102;SDS011;2065;49.790;9.620;2022-12-08T09:58:34;9.83;;;6.30;;
4102;SDS011;2065;49.790;9.620;2022-12-08T10:01:10;11.03;;;6.90;;
4102;SDS011;2065;49.790;9.620;2022-12-08T10:03:37;13.23;;;7.03;;
4102;SDS011;2065;49.790;9.620;2022-12-08T10:06:13;12.23;;;6.70;;
4102;SDS011;2065;49.790;9.620;2022-12-08T10:08:47;10.10;;;6.60;;
4102;SDS011;2065;49.790;9.620;2022-12-08T10:11:25;8.73;;;5.90;;
4102;SDS011;2065;49.790;9.620;2022-12-08T10:13:57;11.10;;;6.43;;
4102;SDS011;2065;49.790;9.620;2022-12-08T10:16:39;9.37;;;5.73;;
4102;SDS011;2065;49.790;9.620;2022-12-08T10:19:10;9.23;;;5.97;;
4102;SDS011;2065;49.790;9.620;2022-12-08T10:21:42;11.43;;;6.60;;
4102;SDS011;2065;49.790;9.620;2022-12-08T10:24:11;9.87;;;6.63;;
4102;SDS011;2065;49.790;9.620;2022-12-08T10:26:43;11.40;;;6.80;;
4102;SDS011;2065;49.790;9.620;2022-12-08T10:29:11;7.70;;;5.70;;
4102;SDS011;2065;49.790;9.620;2022-12-08T10:31:39;9.90;;;5.90;;
4102;SDS011;2065;49.790;9.620;2022-12-08T10:34:13;11.20;;;6.30;;
4102;SDS011;2065;49.790;9.620;2022-12-08T10:36:48;18.00;;;9.03;;
4102;SDS011;2065;49.790;9.620;2022-12-08T10:39:31;15.03;;;6.30;;
4102;SDS011;2065;49.790;9.620;2022-12-08T10:42:01;8.43;;;5.60;;
4102;SDS011;2065;49.790;9.620;2022-12-08T10:44:32;12.50;;;8.30;;
4102;SDS011;2065;49.790;9.620;2022-12-08T10:47:09;9.63;;;5.87;;
4102;SDS011;2065;49.790;9.620;2022-12-08T10:49:37;10.90;;;6.40;;
4102;SDS011;2065;49.790;9.620;2022-12-08T10:52:09;9.80;;;6.13;;
4102;SDS011;2065;49.790;9.620;2022-12-08T10:54:50;16.93;;;7.90;;
4102;SDS011;2065;49.790;9.620;2022-12-08T10:57:20;24.40;;;12.47;;
4102;SDS011;2065;49.790;9.620;2022-12-08T10:59:49;20.67;;;10.50;;
4102;SDS011;2065;49.790;9.620;2022-12-08T11:02:20;14.50;;;7.67;;
4102;SDS011;2065;49.790;9.620;2022-12-08T11:04:53;13.33;;;7.03;;
4102;SDS011;2065;49.790;9.620;2022-12-08T11:07:24;11.50;;;6.00;;
4102;SDS011;2065;49.790;9.620;2022-12-08T11:09:53;10.30;;;6.97;;
4102;SDS011;2065;49.790;9.620;2022-12-08T11:12:25;10.27;;;7.10;;
4102;SDS011;2065;49.790;9.620;2022-12-08T11:14:54;8.63;;;5.23;;
4102;SDS011;2065;49.790;9.620;2022-12-08T11:17:27;10.97;;;6.87;;
4102;SDS011;2065;49.790;9.620;2022-12-08T11:20:00;10.60;;;8.07;;
4102;SDS011;2065;49.790;9.620;2022-12-08T11:22:33;11.90;;;7.30;;
4102;SDS011;2065;49.790;9.620;2022-12-08T11:25:08;10.67;;;6.43;;
4102;SDS011;2065;49.790;9.620;2022-12-08T11:27:37;8.67;;;4.83;;
4102;SDS011;2065;49.790;9.620;2022-12-08T11:30:11;6.70;;;4.40;;
4102;SDS011;2065;49.790;9.620;2022-12-08T11:32:41;7.30;;;4.77;;
4102;SDS011;2065;49.790;9.620;2022-12-08T11:35:13;8.00;;;5.93;;
4102;SDS011;2065;49.790;9.620;2022-12-08T11:37:47;7.83;;;5.80;;
4102;SDS011;2065;49.790;9.620;2022-12-08T11:40:15;7.47;;;5.60;;
4102;SDS011;2065;49.790;9.620;2022-12-08T11:42:53;27.20;;;16.80;;
4102;SDS011;2065;49.790;9.620;2022-12-08T11:45:29;31.13;;;17.87;;
4102;SDS011;2065;49.790;9.620;2022-12-08T11:48:01;9.10;;;5.93;;
4102;SDS011;2065;49.790;9.620;2022-12-08T11:50:37;13.77;;;8.07;;
4102;SDS011;2065;49.790;9.620;2022-12-08T11:53:14;7.60;;;5.37;;
4102;SDS011;2065;49.790;9.620;2022-12-08T11:55:47;6.57;;;4.10;;
4102;SDS011;2065;49.790;9.620;2022-12-08T11:58:19;6.00;;;4.07;;
4102;SDS011;2065;49.790;9.620;2022-12-08T12:00:50;8.90;;;4.77;;
4102;SDS011;2065;49.790;9.620;2022-12-08T12:03:19;8.27;;;4.47;;
4102;SDS011;2065;49.790;9.620;2022-12-08T12:05:58;5.47;;;4.10;;
4102;SDS011;2065;49.790;9.620;2022-12-08T12:08:48;6.20;;;4.90;;
4102;SDS011;2065;49.790;9.620;2022-12-08T12:11:23;7.30;;;4.17;;
4102;SDS011;2065;49.790;9.620;2022-12-08T12:14:17;6.27;;;4.50;;
4102;SDS011;2065;49.790;9.620;2022-12-08T12:16:59;6.00;;;3.80;;
4102;SDS011;2065;49.790;9.620;2022-12-08T12:19:29;5.53;;;3.87;;
4102;SDS011;2065;49.790;9.620;2022-12-08T12:22:04;7.90;;;3.70;;
4102;SDS011;2065;49.790;9.620;2022-12-08T12:24:38;6.37;;;3.90;;
4102;SDS011;2065;49.790;9.620;2022-12-08T12:27:16;6.13;;;4.27;;
4102;SDS011;2065;49.790;9.620;2022-12-08T12:29:49;6.30;;;4.17;;
4102;SDS011;2065;49.790;9.620;2022-12-08T12:32:19;7.97;;;4.80;;
4102;SDS011;2065;49.790;9.620;2022-12-08T12:34:47;6.10;;;4.10;;
4102;SDS011;2065;49.790;9.620;2022-12-08T12:37:17;6.33;;;4.17;;
4102;SDS011;2065;49.790;9.620;2022-12-08T12:39:53;8.27;;;4.97;;
4102;SDS011;2065;49.790;9.620;2022-12-08T12:42:34;8.83;;;6.20;;
4102;SDS011;2065;49.790;9.620;2022-12-08T12:45:10;8.73;;;4.90;;
4102;SDS011;2065;49.790;9.620;2022-12-08T12:47:50;5.60;;;4.23;;
4102;SDS011;2065;49.790;9.620;2022-12-08T12:53:45;6.60;;;4.30;;
4102;SDS011;2065;49.790;9.620;2022-12-08T13:02:18;10.53;;;8.93;;
4102;SDS011;2065;49.790;9.620;2022-12-08T13:04:56;6.60;;;5.20;;
4102;SDS011;2065;49.790;9.620;2022-12-08T13:07:26;3.30;;;3.00;;
4102;SDS011;2065;49.790;9.620;2022-12-08T13:09:57;5.77;;;4.00;;
4102;SDS011;2065;49.790;9.620;2022-12-08T13:12:29;6.20;;;4.33;;
4102;SDS011;2065;49.790;9.620;2022-12-08T13:15:03;7.37;;;4.17;;
4102;SDS011;2065;49.790;9.620;2022-12-08T13:17:32;5.10;;;4.13;;
4102;SDS011;2065;49.790;9.620;2022-12-08T13:20:03;6.30;;;3.57;;
4102;SDS011;2065;49.790;9.620;2022-12-08T13:22:47;6.60;;;3.77;;
4102;SDS011;2065;49.790;9.620;2022-12-08T13:28:24;9.13;;;4.00;;
4102;SDS011;2065;49.790;9.620;2022-12-08T13:30:54;5.80;;;3.83;;
4102;SDS011;2065;49.790;9.620;2022-12-08T13:33:26;4.20;;;3.37;;
4102;SDS011;2065;49.790;9.620;2022-12-08T13:36:00;5.00;;;4.17;;
4102;SDS011;2065;49.790;9.620;2022-12-08T13:38:35;4.63;;;4.17;;
4102;SDS011;2065;49.790;9.620;2022-12-08T13:41:06;4.70;;;4.10;;
4102;SDS011;2065;49.790;9.620;2022-12-08T13:43:41;5.17;;;3.43;;
4102;SDS011;2065;49.790;9.620;2022-12-08T13:46:13;5.37;;;3.30;;
4102;SDS011;2065;49.790;9.620;2022-12-08T13:48:44;5.17;;;4.10;;
4102;SDS011;2065;49.790;9.620;2022-12-08T13:51:15;4.70;;;3.83;;
4102;SDS011;2065;49.790;9.620;2022-12-08T13:53:49;4.90;;;3.17;;
4102;SDS011;2065;49.790;9.620;2022-12-08T13:56:24;9.07;;;4.40;;
4102;SDS011;2065;49.790;9.620;2022-12-08T13:59:01;6.57;;;4.23;;
4102;SDS011;2065;49.790;9.620;2022-12-08T14:01:32;4.60;;;3.83;;
4102;SDS011;2065;49.790;9.620;2022-12-08T14:04:11;8.97;;;3.80;;
4102;SDS011;2065;49.790;9.620;2022-12-08T14:06:41;3.50;;;3.10;;
4102;SDS011;2065;49.790;9.620;2022-12-08T14:09:10;6.10;;;3.73;;
4102;SDS011;2065;49.790;9.620;2022-12-08T14:11:42;4.77;;;3.20;;
4102;SDS011;2065;49.790;9.620;2022-12-08T14:14:15;5.37;;;3.47;;
4102;SDS011;2065;49.790;9.620;2022-12-08T14:16:47;13.77;;;6.40;;
4102;SDS011;2065;49.790;9.620;2022-12-08T14:19:16;7.30;;;4.17;;
4102;SDS011;2065;49.790;9.620;2022-12-08T14:21:45;4.20;;;3.23;;
4102;SDS011;2065;49.790;9.620;2022-12-08T14:24:23;7.80;;;3.63;;
4102;SDS011;2065;49.790;9.620;2022-12-08T14:26:51;5.10;;;3.50;;
4102;SDS011;2065;49.790;9.620;2022-12-08T14:29:36;6.07;;;3.93;;
4102;SDS011;2065;49.790;9.620;2022-12-08T14:32:17;6.23;;;3.83;;
4102;SDS011;2065;49.790;9.620;2022-12-08T14:34:49;7.10;;;4.10;;
4102;SDS011;2065;49.790;9.620;2022-12-08T14:37:19;5.13;;;3.60;;
4102;SDS011;2065;49.790;9.620;2022-12-08T14:39:47;7.13;;;3.70;;
4102;SDS011;2065;49.790;9.620;2022-12-08T14:42:18;3.57;;;3.27;;
4102;SDS011;2065;49.790;9.620;2022-12-08T14:44:49;6.50;;;3.87;;
4102;SDS011;2065;49.790;9.620;2022-12-08T14:47:22;8.33;;;4.07;;
4102;SDS011;2065;49.790;9.620;2022-12-08T14:49:54;10.57;;;5.97;;
4102;SDS011;2065;49.790;9.620;2022-12-08T14:52:21;9.53;;;6.17;;
4102;SDS011;2065;49.790;9.620;2022-12-08T14:54:49;9.57;;;6.30;;
4102;SDS011;2065;49.790;9.620;2022-12-08T14:57:17;10.73;;;7.13;;
4102;SDS011;2065;49.790;9.620;2022-12-08T14:59:44;10.53;;;7.37;;
4102;SDS011;2065;49.790;9.620;2022-12-08T15:02:23;11.83;;;7.23;;
4102;SDS011;2065;49.790;9.620;2022-12-08T15:04:55;10.40;;;6.10;;
4102;SDS011;2065;49.790;9.620;2022-12-08T15:07:26;13.33;;;6.50;;
4102;SDS011;2065;49.790;9.620;2022-12-08T15:10:17;11.50;;;6.60;;
4102;SDS011;2065;49.790;9.620;2022-12-08T15:12:56;8.50;;;6.30;;
4102;SDS011;2065;49.790;9.620;2022-12-08T15:15:25;10.23;;;6.23;;
4102;SDS011;2065;49.790;9.620;2022-12-08T15:17:59;10.93;;;6.60;;
4102;SDS011;2065;49.790;9.620;2022-12-08T15:20:31;10.47;;;6.50;;
4102;SDS011;2065;49.790;9.620;2022-12-08T15:23:05;13.17;;;7.50;;
4102;SDS011;2065;49.790;9.620;2022-12-08T15:25:43;12.03;;;6.90;;
4102;SDS011;2065;49.790;9.620;2022-12-08T15:28:10;10.83;;;6.13;;
4102;SDS011;2065;49.790;9.620;2022-12-08T15:30:39;11.57;;;6.60;;
4102;SDS011;2065;49.790;9.620;2022-12-08T15:33:07;14.90;;;7.13;;
4102;SDS011;2065;49.790;9.620;2022-12-08T15:35:34;11.07;;;6.87;;